sensor_id;sensor_type;location;lat;lon;timestamp;P1;durP1;ratioP1;P2;durP2;ratioP2
16845;SDS011;8539;53.188;8.696;2023-07-16T00:00:08;6.85;;;2.88;;
16845;SDS011;8539;53.188;8.696;2023-07-16T00:02:36;5.88;;;2.78;;
16845;SDS011;8539;53.188;8.696;2023-07-16T00:05:03;4.78;;;2.13;;
16845;SDS011;8539;53.188;8.696;2023-07-16T00:07:30;3.97;;;2.28;;
16845;SDS011;8539;53.188;8.696;2023-07-16T00:09:56;3.15;;;2.13;;
16845;SDS011;8539;53.188;8.696;2023-07-16T00:12:22;6.70;;;2.08;;
16845;SDS011;8539;53.188;8.696;2023-07-16T00:14:48;5.80;;;2.25;;
16845;SDS011;8539;53.188;8.696;2023-07-16T00:17:14;7.03;;;2.35;;
16845;SDS011;8539;53.188;8.696;2023-07-16T00:19:40;4.50;;;2.10;;
16845;SDS011;8539;53.188;8.696;2023-07-16T00:22:06;3.63;;;2.35;;
16845;SDS011;8539;53.188;8.696;2023-07-16T00:24:33;6.85;;;3.05;;
16845;SDS011;8539;53.188;8.696;2023-07-16T00:26:59;3.10;;;2.15;;
16845;SDS011;8539;53.188;8.696;2023-07-16T00:29:25;4.05;;;2.50;;
16845;SDS011;8539;53.188;8.696;2023-07-16T00:31:51;7.15;;;2.45;;
16845;SDS011;8539;53.188;8.696;2023-07-16T00:34:17;3.22;;;2.25;;
16845;SDS011;8539;53.188;8.696;2023-07-16T00:36:43;5.85;;;2.92;;
16845;SDS011;8539;53.188;8.696;2023-07-16T00:39:10;4.50;;;2.45;;
16845;SDS011;8539;53.188;8.696;2023-07-16T00:41:36;5.50;;;2.22;;
16845;SDS011;8539;53.188;8.696;2023-07-16T00:46:41;4.72;;;2.28;;
16845;SDS011;8539;53.188;8.696;2023-07-16T00:49:07;4.05;;;2.40;;
16845;SDS011;8539;53.188;8.696;2023-07-16T00:51:33;3.10;;;2.35;;
16845;SDS011;8539;53.188;8.696;2023-07-16T00:54:06;4.63;;;2.53;;
16845;SDS011;8539;53.188;8.696;2023-07-16T00:56:37;3.28;;;1.77;;
16845;SDS011;8539;53.188;8.696;2023-07-16T00:59:03;5.88;;;2.65;;
16845;SDS011;8539;53.188;8.696;2023-07-16T01:01:29;10.82;;;2.63;;
16845;SDS011;8539;53.188;8.696;2023-07-16T01:03:56;7.20;;;2.78;;
16845;SDS011;8539;53.188;8.696;2023-07-16T01:06:25;5.78;;;2.13;;
16845;SDS011;8539;53.188;8.696;2023-07-16T01:12:58;6.55;;;2.58;;
16845;SDS011;8539;53.188;8.696;2023-07-16T01:18:04;7.47;;;3.17;;
16845;SDS011;8539;53.188;8.696;2023-07-16T01:20:31;5.75;;;2.35;;
16845;SDS011;8539;53.188;8.696;2023-07-16T01:30:53;7.07;;;2.67;;
16845;SDS011;8539;53.188;8.696;2023-07-16T01:33:22;5.25;;;2.28;;
16845;SDS011;8539;53.188;8.696;2023-07-16T01:35:49;7.88;;;2.63;;
16845;SDS011;8539;53.188;8.696;2023-07-16T01:38:16;7.40;;;2.53;;
16845;SDS011;8539;53.188;8.696;2023-07-16T01:40:44;3.22;;;2.13;;
16845;SDS011;8539;53.188;8.696;2023-07-16T01:43:10;4.90;;;2.83;;
16845;SDS011;8539;53.188;8.696;2023-07-16T01:45:36;3.15;;;2.42;;
16845;SDS011;8539;53.188;8.696;2023-07-16T01:50:57;9.85;;;2.65;;
16845;SDS011;8539;53.188;8.696;2023-07-16T01:53:23;6.75;;;2.85;;
16845;SDS011;8539;53.188;8.696;2023-07-16T01:55:50;10.00;;;2.55;;
16845;SDS011;8539;53.188;8.696;2023-07-16T01:58:16;6.22;;;2.38;;
16845;SDS011;8539;53.188;8.696;2023-07-16T02:00:42;8.02;;;2.75;;
16845;SDS011;8539;53.188;8.696;2023-07-16T02:03:08;7.00;;;2.70;;
16845;SDS011;8539;53.188;8.696;2023-07-16T02:05:34;8.68;;;2.72;;
16845;SDS011;8539;53.188;8.696;2023-07-16T02:08:01;5.25;;;2.30;;
16845;SDS011;8539;53.188;8.696;2023-07-16T02:10:27;7.68;;;2.75;;
16845;SDS011;8539;53.188;8.696;2023-07-16T02:12:53;5.72;;;3.20;;
16845;SDS011;8539;53.188;8.696;2023-07-16T02:15:19;5.43;;;2.20;;
16845;SDS011;8539;53.188;8.696;2023-07-16T02:17:45;3.58;;;2.50;;
16845;SDS011;8539;53.188;8.696;2023-07-16T02:20:11;6.55;;;2.63;;
16845;SDS011;8539;53.188;8.696;2023-07-16T02:22:37;9.80;;;2.47;;
16845;SDS011;8539;53.188;8.696;2023-07-16T02:25:03;3.25;;;2.28;;
16845;SDS011;8539;53.188;8.696;2023-07-16T02:27:30;6.45;;;2.45;;
16845;SDS011;8539;53.188;8.696;2023-07-16T02:29:56;6.43;;;2.15;;
16845;SDS011;8539;53.188;8.696;2023-07-16T02:32:23;9.82;;;3.05;;
16845;SDS011;8539;53.188;8.696;2023-07-16T02:34:49;7.05;;;2.78;;
16845;SDS011;8539;53.188;8.696;2023-07-16T02:37:15;3.85;;;2.28;;
16845;SDS011;8539;53.188;8.696;2023-07-16T02:39:42;3.95;;;2.10;;
16845;SDS011;8539;53.188;8.696;2023-07-16T02:42:10;23.60;;;3.17;;
16845;SDS011;8539;53.188;8.696;2023-07-16T02:44:36;5.63;;;2.42;;
16845;SDS011;8539;53.188;8.696;2023-07-16T02:47:07;4.32;;;2.03;;
16845;SDS011;8539;53.188;8.696;2023-07-16T02:49:33;4.60;;;2.08;;
16845;SDS011;8539;53.188;8.696;2023-07-16T02:52:00;6.30;;;3.03;;
16845;SDS011;8539;53.188;8.696;2023-07-16T02:54:26;5.88;;;2.75;;
16845;SDS011;8539;53.188;8.696;2023-07-16T02:56:53;5.05;;;2.55;;
16845;SDS011;8539;53.188;8.696;2023-07-16T02:59:19;5.07;;;2.40;;
16845;SDS011;8539;53.188;8.696;2023-07-16T03:01:45;6.45;;;2.50;;
16845;SDS011;8539;53.188;8.696;2023-07-16T03:04:11;7.05;;;2.40;;
16845;SDS011;8539;53.188;8.696;2023-07-16T03:09:24;3.67;;;2.17;;
16845;SDS011;8539;53.188;8.696;2023-07-16T03:11:50;3.95;;;2.88;;
16845;SDS011;8539;53.188;8.696;2023-07-16T03:14:16;6.32;;;2.88;;
16845;SDS011;8539;53.188;8.696;2023-07-16T03:16:42;6.82;;;2.97;;
16845;SDS011;8539;53.188;8.696;2023-07-16T03:19:08;8.23;;;2.63;;
16845;SDS011;8539;53.188;8.696;2023-07-16T03:21:34;6.57;;;2.95;;
16845;SDS011;8539;53.188;8.696;2023-07-16T03:24:00;7.93;;;4.20;;
16845;SDS011;8539;53.188;8.696;2023-07-16T03:26:26;3.55;;;2.67;;
16845;SDS011;8539;53.188;8.696;2023-07-16T03:28:52;11.70;;;3.60;;
16845;SDS011;8539;53.188;8.696;2023-07-16T03:31:18;7.88;;;2.78;;
16845;SDS011;8539;53.188;8.696;2023-07-16T03:33:44;7.30;;;3.28;;
16845;SDS011;8539;53.188;8.696;2023-07-16T03:36:10;5.95;;;2.72;;
16845;SDS011;8539;53.188;8.696;2023-07-16T03:38:36;4.65;;;3.42;;
16845;SDS011;8539;53.188;8.696;2023-07-16T03:41:02;9.35;;;3.65;;
16845;SDS011;8539;53.188;8.696;2023-07-16T03:43:28;10.77;;;4.75;;
16845;SDS011;8539;53.188;8.696;2023-07-16T03:45:54;13.07;;;4.90;;
16845;SDS011;8539;53.188;8.696;2023-07-16T03:48:20;11.45;;;4.97;;
16845;SDS011;8539;53.188;8.696;2023-07-16T03:50:46;13.23;;;5.05;;
16845;SDS011;8539;53.188;8.696;2023-07-16T03:53:13;10.52;;;5.10;;
16845;SDS011;8539;53.188;8.696;2023-07-16T03:55:39;9.45;;;5.38;;
16845;SDS011;8539;53.188;8.696;2023-07-16T03:58:05;8.73;;;4.93;;
16845;SDS011;8539;53.188;8.696;2023-07-16T04:00:31;6.75;;;4.10;;
16845;SDS011;8539;53.188;8.696;2023-07-16T04:02:58;17.85;;;5.47;;
16845;SDS011;8539;53.188;8.696;2023-07-16T04:05:24;11.98;;;4.10;;
16845;SDS011;8539;53.188;8.696;2023-07-16T04:07:50;16.27;;;4.07;;
16845;SDS011;8539;53.188;8.696;2023-07-16T04:10:17;12.55;;;4.35;;
16845;SDS011;8539;53.188;8.696;2023-07-16T04:12:43;13.27;;;4.18;;
16845;SDS011;8539;53.188;8.696;2023-07-16T04:15:09;14.07;;;4.40;;
16845;SDS011;8539;53.188;8.696;2023-07-16T04:17:36;5.43;;;3.30;;
16845;SDS011;8539;53.188;8.696;2023-07-16T04:20:02;9.02;;;3.78;;
16845;SDS011;8539;53.188;8.696;2023-07-16T04:22:28;7.35;;;2.80;;
16845;SDS011;8539;53.188;8.696;2023-07-16T04:24:54;6.57;;;3.40;;
16845;SDS011;8539;53.188;8.696;2023-07-16T04:27:20;8.38;;;3.97;;
16845;SDS011;8539;53.188;8.696;2023-07-16T04:29:46;10.23;;;3.30;;
16845;SDS011;8539;53.188;8.696;2023-07-16T04:32:12;7.85;;;3.95;;
16845;SDS011;8539;53.188;8.696;2023-07-16T04:34:38;8.80;;;3.15;;
16845;SDS011;8539;53.188;8.696;2023-07-16T04:37:04;9.35;;;4.80;;
16845;SDS011;8539;53.188;8.696;2023-07-16T04:39:30;3.80;;;3.08;;
16845;SDS011;8539;53.188;8.696;2023-07-16T04:41:57;6.15;;;3.28;;
16845;SDS011;8539;53.188;8.696;2023-07-16T04:44:23;5.53;;;3.85;;
16845;SDS011;8539;53.188;8.696;2023-07-16T04:46:49;5.85;;;3.47;;
16845;SDS011;8539;53.188;8.696;2023-07-16T04:49:15;8.25;;;3.55;;
16845;SDS011;8539;53.188;8.696;2023-07-16T04:51:41;10.63;;;3.78;;
16845;SDS011;8539;53.188;8.696;2023-07-16T04:54:07;11.18;;;3.53;;
16845;SDS011;8539;53.188;8.696;2023-07-16T04:56:33;8.70;;;3.30;;
16845;SDS011;8539;53.188;8.696;2023-07-16T04:58:59;9.07;;;3.17;;
16845;SDS011;8539;53.188;8.696;2023-07-16T05:01:25;5.72;;;3.17;;
16845;SDS011;8539;53.188;8.696;2023-07-16T05:03:52;8.95;;;3.22;;
16845;SDS011;8539;53.188;8.696;2023-07-16T05:06:18;8.13;;;3.40;;
16845;SDS011;8539;53.188;8.696;2023-07-16T05:08:45;5.10;;;2.83;;
16845;SDS011;8539;53.188;8.696;2023-07-16T05:11:12;9.75;;;3.45;;
16845;SDS011;8539;53.188;8.696;2023-07-16T05:13:38;9.20;;;3.75;;
16845;SDS011;8539;53.188;8.696;2023-07-16T05:16:04;11.27;;;4.72;;
16845;SDS011;8539;53.188;8.696;2023-07-16T05:18:30;7.63;;;3.47;;
16845;SDS011;8539;53.188;8.696;2023-07-16T05:20:56;7.55;;;3.92;;
16845;SDS011;8539;53.188;8.696;2023-07-16T05:23:22;7.47;;;3.17;;
16845;SDS011;8539;53.188;8.696;2023-07-16T05:25:49;12.25;;;3.85;;
16845;SDS011;8539;53.188;8.696;2023-07-16T05:28:16;6.38;;;2.90;;
16845;SDS011;8539;53.188;8.696;2023-07-16T05:30:43;8.95;;;3.30;;
16845;SDS011;8539;53.188;8.696;2023-07-16T05:33:09;12.82;;;4.70;;
16845;SDS011;8539;53.188;8.696;2023-07-16T05:35:36;7.78;;;3.00;;
16845;SDS011;8539;53.188;8.696;2023-07-16T05:38:04;12.10;;;3.92;;
16845;SDS011;8539;53.188;8.696;2023-07-16T05:40:30;9.65;;;3.53;;
16845;SDS011;8539;53.188;8.696;2023-07-16T05:42:56;6.60;;;3.40;;
16845;SDS011;8539;53.188;8.696;2023-07-16T05:45:22;10.88;;;3.63;;
16845;SDS011;8539;53.188;8.696;2023-07-16T05:47:48;10.07;;;3.85;;
16845;SDS011;8539;53.188;8.696;2023-07-16T05:50:15;10.57;;;4.28;;
16845;SDS011;8539;53.188;8.696;2023-07-16T05:52:41;8.27;;;3.40;;
16845;SDS011;8539;53.188;8.696;2023-07-16T05:55:07;9.00;;;3.78;;
16845;SDS011;8539;53.188;8.696;2023-07-16T05:57:34;11.30;;;3.65;;
16845;SDS011;8539;53.188;8.696;2023-07-16T06:00:00;11.70;;;3.70;;
16845;SDS011;8539;53.188;8.696;2023-07-16T06:02:26;10.68;;;3.35;;
16845;SDS011;8539;53.188;8.696;2023-07-16T06:04:52;8.68;;;2.90;;
16845;SDS011;8539;53.188;8.696;2023-07-16T06:07:18;8.55;;;3.20;;
16845;SDS011;8539;53.188;8.696;2023-07-16T06:09:44;11.10;;;4.53;;
16845;SDS011;8539;53.188;8.696;2023-07-16T06:12:10;6.25;;;3.60;;
16845;SDS011;8539;53.188;8.696;2023-07-16T06:14:36;6.18;;;3.33;;
16845;SDS011;8539;53.188;8.696;2023-07-16T06:17:02;10.00;;;3.45;;
16845;SDS011;8539;53.188;8.696;2023-07-16T06:19:29;5.43;;;3.35;;
16845;SDS011;8539;53.188;8.696;2023-07-16T06:21:55;7.07;;;3.33;;
16845;SDS011;8539;53.188;8.696;2023-07-16T06:24:21;8.50;;;3.35;;
16845;SDS011;8539;53.188;8.696;2023-07-16T06:29:44;9.40;;;3.60;;
16845;SDS011;8539;53.188;8.696;2023-07-16T06:32:10;7.55;;;3.22;;
16845;SDS011;8539;53.188;8.696;2023-07-16T06:34:36;9.27;;;3.75;;
16845;SDS011;8539;53.188;8.696;2023-07-16T06:37:02;11.05;;;3.65;;
16845;SDS011;8539;53.188;8.696;2023-07-16T06:39:28;9.05;;;3.65;;
16845;SDS011;8539;53.188;8.696;2023-07-16T06:41:57;6.97;;;3.20;;
16845;SDS011;8539;53.188;8.696;2023-07-16T06:44:23;12.13;;;4.43;;
16845;SDS011;8539;53.188;8.696;2023-07-16T06:46:49;7.32;;;2.55;;
16845;SDS011;8539;53.188;8.696;2023-07-16T06:49:15;7.45;;;2.53;;
16845;SDS011;8539;53.188;8.696;2023-07-16T06:51:41;5.40;;;2.33;;
16845;SDS011;8539;53.188;8.696;2023-07-16T06:54:07;7.63;;;2.88;;
16845;SDS011;8539;53.188;8.696;2023-07-16T06:56:33;4.40;;;2.38;;
16845;SDS011;8539;53.188;8.696;2023-07-16T06:58:59;3.20;;;2.25;;
16845;SDS011;8539;53.188;8.696;2023-07-16T07:01:26;6.18;;;2.60;;
16845;SDS011;8539;53.188;8.696;2023-07-16T07:03:53;4.05;;;2.72;;
16845;SDS011;8539;53.188;8.696;2023-07-16T07:06:20;6.95;;;2.50;;
16845;SDS011;8539;53.188;8.696;2023-07-16T07:08:46;8.40;;;2.90;;
16845;SDS011;8539;53.188;8.696;2023-07-16T07:13:43;9.27;;;2.92;;
16845;SDS011;8539;53.188;8.696;2023-07-16T07:16:09;12.07;;;3.60;;
16845;SDS011;8539;53.188;8.696;2023-07-16T07:18:36;7.32;;;3.58;;
16845;SDS011;8539;53.188;8.696;2023-07-16T07:26:11;4.28;;;3.42;;
16845;SDS011;8539;53.188;8.696;2023-07-16T07:28:37;5.72;;;3.08;;
16845;SDS011;8539;53.188;8.696;2023-07-16T07:31:03;8.25;;;3.83;;
16845;SDS011;8539;53.188;8.696;2023-07-16T07:33:32;10.90;;;3.97;;
16845;SDS011;8539;53.188;8.696;2023-07-16T07:35:58;6.78;;;3.85;;
16845;SDS011;8539;53.188;8.696;2023-07-16T07:38:24;11.18;;;4.15;;
16845;SDS011;8539;53.188;8.696;2023-07-16T07:40:50;11.00;;;4.35;;
16845;SDS011;8539;53.188;8.696;2023-07-16T07:43:16;9.52;;;4.03;;
16845;SDS011;8539;53.188;8.696;2023-07-16T07:45:43;7.50;;;4.13;;
16845;SDS011;8539;53.188;8.696;2023-07-16T07:48:09;7.88;;;3.60;;
16845;SDS011;8539;53.188;8.696;2023-07-16T07:50:36;8.15;;;3.40;;
16845;SDS011;8539;53.188;8.696;2023-07-16T07:53:02;9.05;;;4.20;;
16845;SDS011;8539;53.188;8.696;2023-07-16T07:55:28;7.53;;;3.45;;
16845;SDS011;8539;53.188;8.696;2023-07-16T07:57:54;5.50;;;3.60;;
16845;SDS011;8539;53.188;8.696;2023-07-16T08:00:20;7.00;;;4.15;;
16845;SDS011;8539;53.188;8.696;2023-07-16T08:02:46;6.80;;;4.15;;
16845;SDS011;8539;53.188;8.696;2023-07-16T08:05:12;7.10;;;3.70;;
16845;SDS011;8539;53.188;8.696;2023-07-16T08:07:38;8.25;;;3.60;;
16845;SDS011;8539;53.188;8.696;2023-07-16T08:10:05;9.50;;;4.13;;
16845;SDS011;8539;53.188;8.696;2023-07-16T08:12:32;6.40;;;3.33;;
16845;SDS011;8539;53.188;8.696;2023-07-16T08:14:58;6.55;;;3.47;;
16845;SDS011;8539;53.188;8.696;2023-07-16T08:17:24;6.65;;;3.38;;
16845;SDS011;8539;53.188;8.696;2023-07-16T08:19:50;5.38;;;2.92;;
16845;SDS011;8539;53.188;8.696;2023-07-16T08:22:16;9.80;;;3.47;;
16845;SDS011;8539;53.188;8.696;2023-07-16T08:24:42;5.25;;;2.80;;
16845;SDS011;8539;53.188;8.696;2023-07-16T08:27:08;6.13;;;2.78;;
16845;SDS011;8539;53.188;8.696;2023-07-16T08:29:37;8.65;;;3.65;;
16845;SDS011;8539;53.188;8.696;2023-07-16T08:32:04;10.68;;;3.65;;
16845;SDS011;8539;53.188;8.696;2023-07-16T08:34:30;6.00;;;3.25;;
16845;SDS011;8539;53.188;8.696;2023-07-16T08:36:59;7.18;;;4.15;;
16845;SDS011;8539;53.188;8.696;2023-07-16T08:39:25;8.30;;;3.40;;
16845;SDS011;8539;53.188;8.696;2023-07-16T08:41:51;8.55;;;3.42;;
16845;SDS011;8539;53.188;8.696;2023-07-16T08:44:17;5.60;;;2.90;;
16845;SDS011;8539;53.188;8.696;2023-07-16T08:46:43;4.72;;;2.90;;
16845;SDS011;8539;53.188;8.696;2023-07-16T08:49:10;6.72;;;2.80;;
16845;SDS011;8539;53.188;8.696;2023-07-16T08:51:37;5.97;;;2.38;;
16845;SDS011;8539;53.188;8.696;2023-07-16T08:54:04;6.20;;;3.33;;
16845;SDS011;8539;53.188;8.696;2023-07-16T08:56:30;4.43;;;2.72;;
16845;SDS011;8539;53.188;8.696;2023-07-16T08:58:57;14.18;;;3.55;;
16845;SDS011;8539;53.188;8.696;2023-07-16T09:01:24;6.68;;;3.40;;
16845;SDS011;8539;53.188;8.696;2023-07-16T09:03:50;7.10;;;2.90;;
16845;SDS011;8539;53.188;8.696;2023-07-16T09:06:16;7.18;;;3.60;;
16845;SDS011;8539;53.188;8.696;2023-07-16T09:08:42;4.38;;;3.05;;
16845;SDS011;8539;53.188;8.696;2023-07-16T09:11:11;8.30;;;3.60;;
16845;SDS011;8539;53.188;8.696;2023-07-16T09:13:44;5.07;;;3.28;;
16845;SDS011;8539;53.188;8.696;2023-07-16T09:16:11;6.78;;;3.50;;
16845;SDS011;8539;53.188;8.696;2023-07-16T09:18:37;5.15;;;3.45;;
16845;SDS011;8539;53.188;8.696;2023-07-16T09:21:05;8.90;;;3.75;;
16845;SDS011;8539;53.188;8.696;2023-07-16T09:23:32;8.57;;;4.30;;
16845;SDS011;8539;53.188;8.696;2023-07-16T09:25:58;8.65;;;3.42;;
16845;SDS011;8539;53.188;8.696;2023-07-16T09:28:25;5.95;;;3.25;;
16845;SDS011;8539;53.188;8.696;2023-07-16T09:30:52;5.55;;;4.35;;
16845;SDS011;8539;53.188;8.696;2023-07-16T09:33:19;10.50;;;4.43;;
16845;SDS011;8539;53.188;8.696;2023-07-16T09:35:47;6.75;;;4.07;;
16845;SDS011;8539;53.188;8.696;2023-07-16T09:38:14;4.70;;;3.30;;
16845;SDS011;8539;53.188;8.696;2023-07-16T09:40:41;5.45;;;4.00;;
16845;SDS011;8539;53.188;8.696;2023-07-16T09:43:11;5.22;;;3.42;;
16845;SDS011;8539;53.188;8.696;2023-07-16T09:45:38;8.55;;;3.88;;
16845;SDS011;8539;53.188;8.696;2023-07-16T09:48:04;8.15;;;4.55;;
16845;SDS011;8539;53.188;8.696;2023-07-16T09:50:34;6.78;;;3.42;;
16845;SDS011;8539;53.188;8.696;2023-07-16T09:53:03;8.10;;;4.07;;
16845;SDS011;8539;53.188;8.696;2023-07-16T09:55:34;8.52;;;3.58;;
16845;SDS011;8539;53.188;8.696;2023-07-16T09:58:01;7.13;;;3.97;;
16845;SDS011;8539;53.188;8.696;2023-07-16T10:00:31;8.40;;;4.10;;
16845;SDS011;8539;53.188;8.696;2023-07-16T10:02:59;8.18;;;3.70;;
16845;SDS011;8539;53.188;8.696;2023-07-16T10:05:26;4.13;;;3.40;;
16845;SDS011;8539;53.188;8.696;2023-07-16T10:07:57;7.80;;;3.20;;
16845;SDS011;8539;53.188;8.696;2023-07-16T10:13:11;5.72;;;3.60;;
16845;SDS011;8539;53.188;8.696;2023-07-16T10:15:38;8.88;;;4.18;;
16845;SDS011;8539;53.188;8.696;2023-07-16T10:18:22;4.35;;;3.17;;
16845;SDS011;8539;53.188;8.696;2023-07-16T10:21:11;9.45;;;3.72;;
16845;SDS011;8539;53.188;8.696;2023-07-16T10:23:41;6.15;;;3.40;;
16845;SDS011;8539;53.188;8.696;2023-07-16T10:26:09;6.53;;;2.88;;
16845;SDS011;8539;53.188;8.696;2023-07-16T10:28:37;5.63;;;3.72;;
16845;SDS011;8539;53.188;8.696;2023-07-16T10:31:04;4.97;;;2.90;;
16845;SDS011;8539;53.188;8.696;2023-07-16T10:33:33;4.85;;;3.30;;
16845;SDS011;8539;53.188;8.696;2023-07-16T10:35:59;5.80;;;3.03;;
16845;SDS011;8539;53.188;8.696;2023-07-16T10:38:25;6.35;;;3.38;;
16845;SDS011;8539;53.188;8.696;2023-07-16T10:40:52;7.30;;;2.60;;
16845;SDS011;8539;53.188;8.696;2023-07-16T10:43:18;6.30;;;3.33;;
16845;SDS011;8539;53.188;8.696;2023-07-16T10:45:44;6.88;;;3.20;;
16845;SDS011;8539;53.188;8.696;2023-07-16T10:48:13;6.22;;;3.00;;
16845;SDS011;8539;53.188;8.696;2023-07-16T10:50:40;7.03;;;3.70;;
16845;SDS011;8539;53.188;8.696;2023-07-16T10:53:06;6.70;;;2.97;;
16845;SDS011;8539;53.188;8.696;2023-07-16T10:55:32;6.18;;;2.75;;
16845;SDS011;8539;53.188;8.696;2023-07-16T10:58:06;3.97;;;3.10;;
16845;SDS011;8539;53.188;8.696;2023-07-16T11:00:36;4.65;;;3.08;;
16845;SDS011;8539;53.188;8.696;2023-07-16T11:03:03;3.65;;;2.72;;
16845;SDS011;8539;53.188;8.696;2023-07-16T11:05:29;9.05;;;3.58;;
16845;SDS011;8539;53.188;8.696;2023-07-16T11:07:55;7.72;;;3.17;;
16845;SDS011;8539;53.188;8.696;2023-07-16T11:10:22;4.40;;;2.67;;
16845;SDS011;8539;53.188;8.696;2023-07-16T11:12:52;3.85;;;2.63;;
16845;SDS011;8539;53.188;8.696;2023-07-16T11:15:29;6.93;;;3.08;;
16845;SDS011;8539;53.188;8.696;2023-07-16T11:17:56;5.50;;;3.55;;
16845;SDS011;8539;53.188;8.696;2023-07-16T11:20:23;7.18;;;2.72;;
16845;SDS011;8539;53.188;8.696;2023-07-16T11:22:49;6.47;;;2.88;;
16845;SDS011;8539;53.188;8.696;2023-07-16T11:25:15;4.15;;;2.63;;
16845;SDS011;8539;53.188;8.696;2023-07-16T11:27:41;6.28;;;2.72;;
16845;SDS011;8539;53.188;8.696;2023-07-16T11:30:08;4.75;;;3.13;;
16845;SDS011;8539;53.188;8.696;2023-07-16T11:32:42;6.13;;;3.13;;
16845;SDS011;8539;53.188;8.696;2023-07-16T11:35:15;5.70;;;3.05;;
16845;SDS011;8539;53.188;8.696;2023-07-16T11:37:43;6.20;;;3.22;;
16845;SDS011;8539;53.188;8.696;2023-07-16T11:40:10;6.15;;;3.38;;
16845;SDS011;8539;53.188;8.696;2023-07-16T11:42:39;4.97;;;2.97;;
16845;SDS011;8539;53.188;8.696;2023-07-16T11:47:43;6.38;;;3.03;;
16845;SDS011;8539;53.188;8.696;2023-07-16T11:50:10;6.85;;;3.30;;
16845;SDS011;8539;53.188;8.696;2023-07-16T11:52:36;5.90;;;3.13;;
16845;SDS011;8539;53.188;8.696;2023-07-16T11:55:04;5.15;;;3.00;;
16845;SDS011;8539;53.188;8.696;2023-07-16T11:57:30;6.60;;;3.60;;
16845;SDS011;8539;53.188;8.696;2023-07-16T11:59:56;7.07;;;3.63;;
16845;SDS011;8539;53.188;8.696;2023-07-16T12:02:22;8.40;;;3.30;;
16845;SDS011;8539;53.188;8.696;2023-07-16T12:04:50;5.75;;;3.40;;
16845;SDS011;8539;53.188;8.696;2023-07-16T12:07:30;5.80;;;2.90;;
16845;SDS011;8539;53.188;8.696;2023-07-16T12:09:58;6.38;;;3.80;;
16845;SDS011;8539;53.188;8.696;2023-07-16T12:12:24;5.90;;;2.70;;
16845;SDS011;8539;53.188;8.696;2023-07-16T12:14:50;6.85;;;3.33;;
16845;SDS011;8539;53.188;8.696;2023-07-16T12:17:16;4.45;;;3.13;;
16845;SDS011;8539;53.188;8.696;2023-07-16T12:19:43;7.60;;;3.33;;
16845;SDS011;8539;53.188;8.696;2023-07-16T12:22:09;6.07;;;4.20;;
16845;SDS011;8539;53.188;8.696;2023-07-16T12:24:35;9.73;;;3.80;;
16845;SDS011;8539;53.188;8.696;2023-07-16T12:27:01;6.60;;;3.47;;
16845;SDS011;8539;53.188;8.696;2023-07-16T12:29:28;6.10;;;3.35;;
16845;SDS011;8539;53.188;8.696;2023-07-16T12:31:54;5.35;;;3.10;;
16845;SDS011;8539;53.188;8.696;2023-07-16T12:34:20;5.85;;;2.60;;
16845;SDS011;8539;53.188;8.696;2023-07-16T12:36:46;6.47;;;3.40;;
16845;SDS011;8539;53.188;8.696;2023-07-16T12:39:12;5.30;;;3.65;;
16845;SDS011;8539;53.188;8.696;2023-07-16T12:41:38;5.10;;;2.78;;
16845;SDS011;8539;53.188;8.696;2023-07-16T12:44:04;8.43;;;3.30;;
16845;SDS011;8539;53.188;8.696;2023-07-16T12:46:30;4.53;;;2.67;;
16845;SDS011;8539;53.188;8.696;2023-07-16T12:48:56;5.03;;;3.33;;
16845;SDS011;8539;53.188;8.696;2023-07-16T12:51:22;15.60;;;3.90;;
16845;SDS011;8539;53.188;8.696;2023-07-16T12:53:48;7.22;;;3.35;;
16845;SDS011;8539;53.188;8.696;2023-07-16T12:56:18;3.65;;;3.25;;
16845;SDS011;8539;53.188;8.696;2023-07-16T12:58:44;7.75;;;3.53;;
16845;SDS011;8539;53.188;8.696;2023-07-16T13:01:10;11.45;;;3.40;;
16845;SDS011;8539;53.188;8.696;2023-07-16T13:03:36;5.82;;;2.72;;
16845;SDS011;8539;53.188;8.696;2023-07-16T13:06:02;4.78;;;2.95;;
16845;SDS011;8539;53.188;8.696;2023-07-16T13:08:29;10.77;;;3.95;;
16845;SDS011;8539;53.188;8.696;2023-07-16T13:10:56;8.50;;;3.67;;
16845;SDS011;8539;53.188;8.696;2023-07-16T13:13:23;6.25;;;3.28;;
16845;SDS011;8539;53.188;8.696;2023-07-16T13:15:49;7.32;;;3.55;;
16845;SDS011;8539;53.188;8.696;2023-07-16T13:18:15;6.50;;;3.70;;
16845;SDS011;8539;53.188;8.696;2023-07-16T13:20:42;7.82;;;3.33;;
16845;SDS011;8539;53.188;8.696;2023-07-16T13:23:08;6.60;;;3.05;;
16845;SDS011;8539;53.188;8.696;2023-07-16T13:25:35;10.98;;;3.58;;
16845;SDS011;8539;53.188;8.696;2023-07-16T13:28:06;6.28;;;4.10;;
16845;SDS011;8539;53.188;8.696;2023-07-16T13:30:33;5.40;;;3.55;;
16845;SDS011;8539;53.188;8.696;2023-07-16T13:32:59;6.03;;;3.85;;
16845;SDS011;8539;53.188;8.696;2023-07-16T13:35:26;10.77;;;4.40;;
16845;SDS011;8539;53.188;8.696;2023-07-16T13:37:52;5.10;;;3.70;;
16845;SDS011;8539;53.188;8.696;2023-07-16T13:40:18;6.80;;;3.70;;
16845;SDS011;8539;53.188;8.696;2023-07-16T13:42:46;3.92;;;3.33;;
16845;SDS011;8539;53.188;8.696;2023-07-16T13:45:13;5.18;;;3.85;;
16845;SDS011;8539;53.188;8.696;2023-07-16T13:47:39;9.60;;;3.97;;
16845;SDS011;8539;53.188;8.696;2023-07-16T13:50:05;8.68;;;3.80;;
16845;SDS011;8539;53.188;8.696;2023-07-16T13:52:31;5.03;;;3.30;;
16845;SDS011;8539;53.188;8.696;2023-07-16T13:54:57;5.07;;;3.53;;
16845;SDS011;8539;53.188;8.696;2023-07-16T13:57:23;10.38;;;3.72;;
16845;SDS011;8539;53.188;8.696;2023-07-16T13:59:49;6.03;;;3.45;;
16845;SDS011;8539;53.188;8.696;2023-07-16T14:02:16;4.60;;;3.42;;
16845;SDS011;8539;53.188;8.696;2023-07-16T14:04:42;8.88;;;3.60;;
16845;SDS011;8539;53.188;8.696;2023-07-16T14:07:08;3.85;;;3.25;;
16845;SDS011;8539;53.188;8.696;2023-07-16T14:09:34;7.85;;;3.85;;
16845;SDS011;8539;53.188;8.696;2023-07-16T14:12:00;5.50;;;3.85;;
16845;SDS011;8539;53.188;8.696;2023-07-16T14:14:26;5.85;;;3.67;;
16845;SDS011;8539;53.188;8.696;2023-07-16T14:16:52;5.68;;;3.33;;
16845;SDS011;8539;53.188;8.696;2023-07-16T14:19:18;6.32;;;3.40;;
16845;SDS011;8539;53.188;8.696;2023-07-16T14:21:44;7.35;;;3.70;;
16845;SDS011;8539;53.188;8.696;2023-07-16T14:24:10;6.18;;;3.10;;
16845;SDS011;8539;53.188;8.696;2023-07-16T14:26:36;7.43;;;3.65;;
16845;SDS011;8539;53.188;8.696;2023-07-16T14:29:02;6.43;;;3.63;;
16845;SDS011;8539;53.188;8.696;2023-07-16T14:31:29;4.60;;;3.20;;
16845;SDS011;8539;53.188;8.696;2023-07-16T14:33:55;8.35;;;3.47;;
16845;SDS011;8539;53.188;8.696;2023-07-16T14:36:24;8.20;;;3.63;;
16845;SDS011;8539;53.188;8.696;2023-07-16T14:38:50;4.85;;;3.25;;
16845;SDS011;8539;53.188;8.696;2023-07-16T14:41:15;6.85;;;3.08;;
16845;SDS011;8539;53.188;8.696;2023-07-16T14:43:41;4.35;;;2.88;;
16845;SDS011;8539;53.188;8.696;2023-07-16T14:46:08;7.50;;;3.80;;
16845;SDS011;8539;53.188;8.696;2023-07-16T14:48:41;4.22;;;3.83;;
16845;SDS011;8539;53.188;8.696;2023-07-16T14:51:11;7.63;;;3.63;;
16845;SDS011;8539;53.188;8.696;2023-07-16T14:53:38;5.57;;;3.50;;
16845;SDS011;8539;53.188;8.696;2023-07-16T14:56:04;6.70;;;3.60;;
16845;SDS011;8539;53.188;8.696;2023-07-16T14:58:33;5.13;;;2.95;;
16845;SDS011;8539;53.188;8.696;2023-07-16T15:01:02;5.95;;;3.30;;
16845;SDS011;8539;53.188;8.696;2023-07-16T15:03:36;4.88;;;3.63;;
16845;SDS011;8539;53.188;8.696;2023-07-16T15:06:03;5.32;;;3.17;;
16845;SDS011;8539;53.188;8.696;2023-07-16T15:08:29;7.63;;;3.88;;
16845;SDS011;8539;53.188;8.696;2023-07-16T15:10:57;5.43;;;3.55;;
16845;SDS011;8539;53.188;8.696;2023-07-16T15:13:24;5.68;;;3.80;;
16845;SDS011;8539;53.188;8.696;2023-07-16T15:15:51;6.72;;;3.92;;
16845;SDS011;8539;53.188;8.696;2023-07-16T15:18:18;4.38;;;3.90;;
16845;SDS011;8539;53.188;8.696;2023-07-16T15:20:45;7.45;;;3.72;;
16845;SDS011;8539;53.188;8.696;2023-07-16T15:23:11;4.72;;;2.83;;
16845;SDS011;8539;53.188;8.696;2023-07-16T15:25:40;7.90;;;3.70;;
16845;SDS011;8539;53.188;8.696;2023-07-16T15:28:08;7.47;;;4.20;;
16845;SDS011;8539;53.188;8.696;2023-07-16T15:30:36;7.78;;;3.97;;
16845;SDS011;8539;53.188;8.696;2023-07-16T15:33:03;4.88;;;3.35;;
16845;SDS011;8539;53.188;8.696;2023-07-16T15:35:29;6.90;;;4.18;;